Sunday, November 19, 2017, 8:47 PM EST
Back to Local

KSWF, Newburgh / Stewart

Location: New Windsor, NY, United States Lat: 41.5
Local Time: 8:47 PM EST ( 1:47 GMT) Lon: -74.1
Time Zone: US/Eastern Elev: 492 ft

Show me the last for .
Show Decoded

2017-11-19 19:45 METAR KSWF 200045Z 29010G18KT 10SM SCT050 03/M02 A2970 =
2017-11-19 18:45 METAR KSWF 192345Z 30010G18KT 10SM SCT050 04/M03 A2966 =
2017-11-19 17:45 METAR KSWF 192245Z 30012G22KT 10SM BKN040 05/M03 A2964 =
2017-11-19 16:45 METAR KSWF 192145Z 30017G28KT 10SM BKN040 05/M02 A2962 =
2017-11-19 15:45 METAR KSWF 192045Z 30016G24KT 20SM BKN040 05/M01 A2961 =
2017-11-19 14:45 METAR KSWF 191945Z 30022G30KT 20SM BKN035 05/M02 A2956 =
2017-11-19 13:45 METAR KSWF 191845Z 29018G28KT 20SM BKN035 06/00 A2954 =
2017-11-19 12:45 METAR KSWF 191745Z 30018G30KT 15SM BKN035 06/00 A3051 =
2017-11-19 11:45 METAR KSWF 191645Z 30020G35KT 15SM BKN035 06/01 A2948 =
2017-11-19 10:45 METAR KSWF 191545Z 32026G32KT 15SM BKN030 BKN040 07/01 A2945 RMK PRESRR =
2017-11-19 09:45 METAR KSWF 191445Z 31023G40KT 15SM BKN025 BKN035 07/03 A2937 RMK PRESRR =
2017-11-19 08:45 METAR KSWF 191345Z 28028G41KT 15SM BKN025 BKN050 09/05 A2930 RMK PRESRR =
2017-11-19 07:45 METAR KSWF 191245Z 26018G35KT 15SM BKN020 BKN025 OVC050 13/10 A2920 =
2017-11-19 06:45 METAR KSWF 191145Z 24012KT 10SM BKN025 BKN030 OVC060 14/13 A2917 =
2017-11-19 05:45 METAR KSWF 191045Z 22008KT 10SM BKN020 OVC030 13/13 A2916 =
2017-11-19 03:45 METAR KSWF 190845Z 00000KT 10SM BKN020 OVC025 11/10 A2923 =
2017-11-19 02:45 METAR KSWF 190745Z 00000KT 10SM BKN020 OVC025 08/08 A2929 =
2017-11-19 01:45 METAR KSWF 190645Z 00000KT 10SM SCT030 OVC070 10/09 A2931 =
2017-11-19 00:45 METAR KSWF 190545Z 00000KT 10SM OVC060 09/08 A2935 =
2017-11-18 23:45 METAR KSWF 190445Z 00000KT 10SM SCT040 OVC080 09/07 A2940 =
2017-11-18 22:45 METAR KSWF 190345Z VRB04KT 10SM SCT040 OVC080 08/07 A2944 =
2017-11-18 21:45 METAR KSWF 190245Z VRB05KT 10SM SCT040 OVC080 07/06 A2949 =

Support USWX by starting your Amazon purchase here.